Observation data for Aspermont on 04/26/2019      Previous  Date  Next       Current Mesonet Observations  Soil Data  Daily Summary Page  Observations in Plain Language
KASR 260500Z 04006KT 17/12 A3013 RMK A01 T01730120  RH  072%=      5-min Rain = 0
KASR 260505Z 04005KT 17/12 A3013 RMK A01 T01720119  RH  072%=      5-min Rain = 0
KASR 260510Z 05005KT 17/12 A3013 RMK A01 T01700119  RH  073%=      5-min Rain = 0
KASR 260515Z 06004KT 17/12 A3014 RMK A01 T01680119  RH  074%=      5-min Rain = 0
KASR 260520Z 06004KT 17/12 A3014 RMK A01 T01650119  RH  075%=      5-min Rain = 0
KASR 260525Z 06005KT 16/12 A3014 RMK A01 T01630119  RH  076%=      5-min Rain = 0
KASR 260530Z 06004KT 16/12 A3014 RMK A01 T01600118  RH  078%=      5-min Rain = 0
KASR 260535Z 05005KT 16/12 A3014 RMK A01 T01560118  RH  080%=      5-min Rain = 0
KASR 260540Z 05005KT 15/12 A3014 RMK A01 T01540118  RH  081%=      5-min Rain = 0
KASR 260545Z 05005KT 15/12 A3014 RMK A01 T01530118  RH  081%=      5-min Rain = 0
KASR 260550Z 05005KT 15/12 A3014 RMK A01 T01530117  RH  081%=      5-min Rain = 0
KASR 260555Z 05005KT 15/12 A3014 RMK A01 T01520117  RH  081%=      5-min Rain = 0
KASR 260600Z 05005KT 15/12 A3014 RMK A01 T01520116  RH  081%=      5-min Rain = 0
KASR 260605Z 05005KT 15/12 A3014 RMK A01 T01510116  RH  081%=      5-min Rain = 0
KASR 260610Z 05004KT 15/12 A3015 RMK A01 T01500115  RH  081%=      5-min Rain = 0
KASR 260615Z 05004KT 15/12 A3015 RMK A01 T01490115  RH  082%=      5-min Rain = 0
KASR 260620Z 06004KT 15/12 A3015 RMK A01 T01470115  RH  082%=      5-min Rain = 0
KASR 260625Z 06003KT 15/12 A3015 RMK A01 T01450115  RH  083%=      5-min Rain = 0
KASR 260630Z 07004KT 14/11 A3015 RMK A01 T01430114  RH  084%=      5-min Rain = 0
KASR 260635Z 07003KT 14/11 A3015 RMK A01 T01400113  RH  086%=      5-min Rain = 0
KASR 260640Z 06003KT 14/11 A3015 RMK A01 T01390114  RH  086%=      5-min Rain = 0
KASR 260645Z 06003KT 14/11 A3016 RMK A01 T01370113  RH  087%=      5-min Rain = 0
KASR 260650Z 06002KT 14/11 A3016 RMK A01 T01350112  RH  088%=      5-min Rain = 0
KASR 260655Z 06002KT 13/11 A3016 RMK A01 T01340112  RH  088%=      5-min Rain = 0
KASR 260700Z 05001KT 13/11 A3016 RMK A01 T01310110  RH  089%=      5-min Rain = 0
KASR 260705Z 04001KT 13/11 A3016 RMK A01 T01270109  RH  090%=      5-min Rain = 0
KASR 260710Z 05002KT 12/11 A3016 RMK A01 T01220107  RH  092%=      5-min Rain = 0
KASR 260715Z 04002KT 12/11 A3017 RMK A01 T01190107  RH  094%=      5-min Rain = 0
KASR 260720Z 05003KT 12/11 A3017 RMK A01 T01210111  RH  095%=      5-min Rain = 0
KASR 260725Z 05004KT 12/11 A3016 RMK A01 T01240111  RH  094%=      5-min Rain = 0
KASR 260730Z 05004KT 12/11 A3017 RMK A01 T01230109  RH  093%=      5-min Rain = 0
KASR 260735Z 06004KT 12/11 A3017 RMK A01 T01210108  RH  093%=      5-min Rain = 0
KASR 260740Z 07005KT 12/11 A3016 RMK A01 T01220109  RH  093%=      5-min Rain = 0
KASR 260745Z 07005KT 13/11 A3016 RMK A01 T01260110  RH  092%=      5-min Rain = 0
KASR 260750Z 07005KT 13/11 A3016 RMK A01 T01280109  RH  090%=      5-min Rain = 0
KASR 260755Z 07005KT 13/11 A3016 RMK A01 T01290109  RH  089%=      5-min Rain = 0
KASR 260800Z 07005KT 13/11 A3016 RMK A01 T01300108  RH  088%=      5-min Rain = 0
KASR 260805Z 07005KT 13/11 A3017 RMK A01 T01300108  RH  088%=      5-min Rain = 0
KASR 260810Z 06005KT 13/11 A3017 RMK A01 T01290107  RH  088%=      5-min Rain = 0
KASR 260815Z 06004KT 13/11 A3017 RMK A01 T01280107  RH  088%=      5-min Rain = 0
KASR 260820Z 06004KT 13/11 A3017 RMK A01 T01280106  RH  088%=      5-min Rain = 0
KASR 260825Z 06002KT 13/11 A3017 RMK A01 T01260106  RH  089%=      5-min Rain = 0
KASR 260830Z 02000KT 12/10 A3017 RMK A01 T01230102  RH  089%=      5-min Rain = 0
KASR 260835Z 27000KT 11/10 A3018 RMK A01 T01140096  RH  090%=      5-min Rain = 0
KASR 260840Z 12000KT 12/10 A3018 RMK A01 T01150100  RH  092%=      5-min Rain = 0
KASR 260845Z 09001KT 11/10 A3018 RMK A01 T01140101  RH  093%=      5-min Rain = 0
KASR 260850Z 08002KT 11/10 A3018 RMK A01 T01090097  RH  094%=      5-min Rain = 0
KASR 260855Z 07003KT 11/10 A3018 RMK A01 T01050096  RH  095%=      5-min Rain = 0
KASR 260900Z 07002KT 10/09 A3018 RMK A01 T01030094  RH  096%=      5-min Rain = 0
KASR 260905Z 06000KT 10/10 A3019 RMK A01 T01030095  RH  097%=      5-min Rain = 0
KASR 260910Z 00000KT 10/10 A3019 RMK A01 T01040096  RH  097%=      5-min Rain = 0
KASR 260915Z 04000KT 10/09 A3019 RMK A01 T01010093  RH  097%=      5-min Rain = 0
KASR 260920Z 03002KT 10/10 A3019 RMK A01 T01010095  RH  098%=      5-min Rain = 0
KASR 260925Z 01003KT 10/10 A3019 RMK A01 T01030097  RH  098%=      5-min Rain = 0
KASR 260930Z 01002KT 10/10 A3019 RMK A01 T01020097  RH  098%=      5-min Rain = 0
KASR 260935Z 02001KT 10/10 A302 RMK A01 T01010096  RH  098%=      5-min Rain = 0
KASR 260940Z 01002KT 10/10 A302 RMK A01 T01010096  RH  098%=      5-min Rain = 0
KASR 260945Z 02003KT 10/10 A302 RMK A01 T01020098  RH  099%=      5-min Rain = 0
KASR 260950Z 04003KT 10/10 A302 RMK A01 T01040099  RH  099%=      5-min Rain = 0
KASR 260955Z 06002KT 10/09 A302 RMK A01 T01000094  RH  098%=      5-min Rain = 0
KASR 261000Z 07002KT 10/09 A302 RMK A01 T00980093  RH  098%=      5-min Rain = 0
KASR 261005Z 08003KT 10/09 A302 RMK A01 T00980093  RH  098%=      5-min Rain = 0
KASR 261010Z 07003KT 10/10 A302 RMK A01 T00990095  RH  099%=      5-min Rain = 0
KASR 261015Z 06003KT 10/09 A302 RMK A01 T00980093  RH  098%=      5-min Rain = 0
KASR 261020Z 04002KT 09/09 A302 RMK A01 T00940089  RH  098%=      5-min Rain = 0
KASR 261025Z 35002KT 09/09 A3021 RMK A01 T00920088  RH  098%=      5-min Rain = 0
KASR 261030Z 01001KT 09/09 A302 RMK A01 T00910086  RH  098%=      5-min Rain = 0
KASR 261035Z 02001KT 09/08 A3021 RMK A01 T00890084  RH  098%=      5-min Rain = 0
KASR 261040Z 33001KT 09/09 A3021 RMK A01 T00910087  RH  099%=      5-min Rain = 0
KASR 261045Z 31001KT 09/09 A3021 RMK A01 T00920088  RH  099%=      5-min Rain = 0
KASR 261050Z 29001KT 09/09 A3021 RMK A01 T00920087  RH  099%=      5-min Rain = 0
KASR 261055Z 28001KT 09/09 A3021 RMK A01 T00900086  RH  099%=      5-min Rain = 0
KASR 261100Z 29001KT 09/08 A3021 RMK A01 T00880084  RH  099%=      5-min Rain = 0
KASR 261105Z 07000KT 09/08 A3021 RMK A01 T00870083  RH  099%=      5-min Rain = 0
KASR 261110Z 08002KT 08/08 A3021 RMK A01 T00840080  RH  099%=      5-min Rain = 0
KASR 261115Z 08001KT 09/08 A3022 RMK A01 T00850082  RH  099%=      5-min Rain = 0
KASR 261120Z 08000KT 08/08 A3022 RMK A01 T00830079  RH  099%=      5-min Rain = 0
KASR 261125Z 30001KT 08/08 A3023 RMK A01 T00830079  RH  099%=      5-min Rain = 0
KASR 261130Z 29001KT 08/08 A3023 RMK A01 T00840080  RH  099%=      5-min Rain = 0
KASR 261135Z 29000KT 08/08 A3022 RMK A01 T00840080  RH  099%=      5-min Rain = 0
KASR 261140Z 00000KT 08/08 A3022 RMK A01 T00820079  RH  099%=      5-min Rain = 0
KASR 261145Z 00000KT 08/08 A3022 RMK A01 T00830080  RH  099%=      5-min Rain = 0
KASR 261150Z 29000KT 08/08 A3022 RMK A01 T00830080  RH  100%=      5-min Rain = 0
KASR 261155Z 08001KT 09/08 A3022 RMK A01 T00850083  RH  100%=      5-min Rain = 0
KASR 261200Z 09003KT 09/09 A3022 RMK A01 T00880086  RH  100%=      5-min Rain = 0
KASR 261205Z 09005KT 09/09 A3021 RMK A01 T00920090  RH  100%=      5-min Rain = 0
KASR 261210Z 08006KT 10/10 A3021 RMK A01 T01000097  RH  100%=      5-min Rain = 0
KASR 261215Z 08006KT 11/10 A3021 RMK A01 T01050103  RH  100%=      5-min Rain = 0
KASR 261220Z 08005KT 11/11 A3021 RMK A01 T01100107  RH  100%=      5-min Rain = 0
KASR 261225Z 09003KT 11/11 A3022 RMK A01 T01130109  RH  099%=      5-min Rain = 0
KASR 261230Z 09004KT 12/11 A3022 RMK A01 T01160109  RH  097%=      5-min Rain = 0
KASR 261235Z 09005KT 12/11 A3022 RMK A01 T01180108  RH  096%=      5-min Rain = 0
KASR 261240Z 08005KT 12/11 A3022 RMK A01 T01220109  RH  093%=      5-min Rain = 0
KASR 261245Z 08003KT 13/11 A3023 RMK A01 T01280109  RH  090%=      5-min Rain = 0
KASR 261250Z 09001KT 13/11 A3023 RMK A01 T01320111  RH  088%=      5-min Rain = 0
KASR 261255Z 08000KT 13/11 A3024 RMK A01 T01340112  RH  088%=      5-min Rain = 0
KASR 261300Z 35001KT 13/11 A3024 RMK A01 T01340113  RH  089%=      5-min Rain = 0
KASR 261305Z 34001KT 13/12 A3024 RMK A01 T01340115  RH  090%=      5-min Rain = 0
KASR 261310Z 36000KT 14/12 A3024 RMK A01 T01380118  RH  090%=      5-min Rain = 0
KASR 261315Z 09002KT 15/12 A3024 RMK A01 T01500123  RH  086%=      5-min Rain = 0
KASR 261320Z 08003KT 16/11 A3024 RMK A01 T01560114  RH  077%=      5-min Rain = 0
KASR 261325Z 09005KT 16/11 A3024 RMK A01 T01600113  RH  075%=      5-min Rain = 0
KASR 261330Z 10005KT 16/11 A3024 RMK A01 T01640108  RH  071%=      5-min Rain = 0
KASR 261335Z 10006KT 17/11 A3024 RMK A01 T01690106  RH  068%=      5-min Rain = 0
KASR 261340Z 09006G11KT 17/10 A3024 RMK A01 T01710101  RH  064%=      5-min Rain = 0
KASR 261345Z 09006KT 17/09 A3025 RMK A01 T01730094  RH  061%=      5-min Rain = 0
KASR 261350Z 09006KT 17/09 A3026 RMK A01 T01710085  RH  058%=      5-min Rain = 0
KASR 261355Z 10005KT 18/08 A3026 RMK A01 T01770083  RH  055%=      5-min Rain = 0
KASR 261400Z 10006KT 18/08 A3026 RMK A01 T01780078  RH  053%=      5-min Rain = 0
KASR 261405Z 08006KT 18/08 A3026 RMK A01 T01800082  RH  053%=      5-min Rain = 0
KASR 261410Z 10006KT 18/08 A3026 RMK A01 T01810080  RH  052%=      5-min Rain = 0
KASR 261415Z 09006G11KT 18/08 A3026 RMK A01 T01810075  RH  051%=      5-min Rain = 0
KASR 261420Z 10007KT 18/07 A3026 RMK A01 T01800072  RH  050%=      5-min Rain = 0
KASR 261425Z 11010G16KT 18/07 A3025 RMK A01 T01790070  RH  050%=      5-min Rain = 0
KASR 261430Z 10010G15KT 18/06 A3025 RMK A01 T01750064  RH  049%=      5-min Rain = 0
KASR 261435Z 10011G16KT 17/06 A3024 RMK A01 T01710063  RH  050%=      5-min Rain = 0
KASR 261440Z 09009G15KT 17/07 A3024 RMK A01 T01700066  RH  051%=      5-min Rain = 0
KASR 261445Z 09008G14KT 17/07 A3024 RMK A01 T01680068  RH  052%=      5-min Rain = 0
KASR 261450Z 09008G13KT 17/06 A3025 RMK A01 T01680064  RH  051%=      5-min Rain = 0
KASR 261455Z 08007KT 17/07 A3025 RMK A01 T01690066  RH  051%=      5-min Rain = 0
KASR 261500Z 08007KT 17/07 A3026 RMK A01 T01680065  RH  052%=      5-min Rain = 0
KASR 261505Z 08004KT 17/07 A3028 RMK A01 T01680065  RH  051%=      5-min Rain = 0
KASR 261510Z 08003KT 17/07 A3028 RMK A01 T01680065  RH  051%=      5-min Rain = 0
KASR 261515Z 08003KT 17/07 A3028 RMK A01 T01690071  RH  053%=      5-min Rain = 0
KASR 261520Z 06001KT 17/07 A303 RMK A01 T01700069  RH  052%=      5-min Rain = 0
KASR 261525Z 32003KT 17/08 A3031 RMK A01 T01710082  RH  057%=      5-min Rain = 0
KASR 261530Z 29005KT 17/10 A3031 RMK A01 T01690097  RH  064%=      5-min Rain = 0
KASR 261535Z 29004KT 17/09 A3031 RMK A01 T01710091  RH  060%=      5-min Rain = 0
KASR 261540Z 31002KT 17/08 A303 RMK A01 T01730080  RH  055%=      5-min Rain = 0
KASR 261545Z 35002KT 17/08 A3029 RMK A01 T01740084  RH  057%=      5-min Rain = 0
KASR 261550Z 04002KT 17/08 A3029 RMK A01 T01730078  RH  054%=      5-min Rain = 0
KASR 261555Z 04002KT 17/08 A3029 RMK A01 T01720083  RH  057%=      5-min Rain = 0
KASR 261600Z 04002KT 17/09 A3029 RMK A01 T01710085  RH  058%=      5-min Rain = 0
KASR 261605Z 09002KT 17/09 A3028 RMK A01 T01700088  RH  059%=      5-min Rain = 0
KASR 261610Z 10005KT 17/10 A3028 RMK A01 T01680098  RH  064%=      5-min Rain = 0
KASR 261615Z 10010KT 16/10 A3024 RMK A01 T01630097  RH  066%=      5-min Rain = 0
KASR 261620Z 09011KT 16/09 A3022 RMK A01 T01630092  RH  064%=      5-min Rain = 0
KASR 261625Z 10012G18KT 17/09 A302 RMK A01 T01670092  RH  062%=      5-min Rain = 0
KASR 261630Z 10011G17KT 17/09 A3021 RMK A01 T01740086  RH  057%=      5-min Rain = 0
KASR 261635Z 11009G16KT 18/08 A3022 RMK A01 T01790082  RH  054%=      5-min Rain = 0
KASR 261640Z 12011G18KT 18/07 A3023 RMK A01 T01820073  RH  050%=      5-min Rain = 0
KASR 261645Z 11011G16KT 18/07 A3023 RMK A01 T01840072  RH  049%=      5-min Rain = 0
KASR 261650Z 12012G17KT 19/07 A3022 RMK A01 T01870074  RH  049%=      5-min Rain = 0
KASR 261655Z 12015G22KT 19/06 A3021 RMK A01 T01880063  RH  045%=      5-min Rain = 0
KASR 261700Z 12015G20KT 19/05 A302 RMK A01 T01910049  RH  040%=      5-min Rain = 0
KASR 261705Z 12014G21KT 20/05 A302 RMK A01 T01960052  RH  039%=      5-min Rain = 0
KASR 261710Z 12014G20KT 20/06 A3019 RMK A01 T01970058  RH  041%=      5-min Rain = 0
KASR 261715Z 13012G18KT 20/06 A3019 RMK A01 T01980062  RH  042%=      5-min Rain = 0
KASR 261720Z 12014G25KT 20/05 A3019 RMK A01 T02010053  RH  038%=      5-min Rain = 0
KASR 261725Z 13012G17KT 20/06 A3019 RMK A01 T02020059  RH  040%=      5-min Rain = 0
KASR 261730Z 13014G20KT 20/06 A3019 RMK A01 T02020056  RH  039%=      5-min Rain = 0
KASR 261735Z 13013G21KT 20/06 A3019 RMK A01 T02040057  RH  039%=      5-min Rain = 0
KASR 261740Z 12012G21KT 21/05 A3019 RMK A01 T02060052  RH  037%=      5-min Rain = 0
KASR 261745Z 12010G17KT 21/06 A302 RMK A01 T02090056  RH  037%=      5-min Rain = 0
KASR 261750Z 11009G14KT 21/06 A302 RMK A01 T02120063  RH  038%=      5-min Rain = 0
KASR 261755Z 12008G14KT 21/07 A302 RMK A01 T02130066  RH  039%=      5-min Rain = 0
KASR 261800Z 12009KT 21/06 A302 RMK A01 T02110060  RH  038%=      5-min Rain = 0
KASR 261805Z 14010G15KT 21/06 A302 RMK A01 T02120061  RH  038%=      5-min Rain = 0
KASR 261810Z 13007KT 22/07 A302 RMK A01 T02160068  RH  039%=      5-min Rain = 0
KASR 261815Z 13009G14KT 22/06 A302 RMK A01 T02170061  RH  037%=      5-min Rain = 0
KASR 261820Z 13009G14KT 22/06 A3019 RMK A01 T02170057  RH  036%=      5-min Rain = 0
KASR 261825Z 12009G14KT 22/05 A3019 RMK A01 T02160054  RH  035%=      5-min Rain = 0
KASR 261830Z 13007G13KT 22/06 A3019 RMK A01 T02190064  RH  037%=      5-min Rain = 0
KASR 261835Z 13010G15KT 22/06 A3019 RMK A01 T02180059  RH  036%=      5-min Rain = 0
KASR 261840Z 12008G13KT 22/06 A3019 RMK A01 T02190061  RH  036%=      5-min Rain = 0
KASR 261845Z 11008G13KT 22/06 A3019 RMK A01 T02200061  RH  036%=      5-min Rain = 0
KASR 261850Z 13009G14KT 22/06 A3019 RMK A01 T02190056  RH  035%=      5-min Rain = 0
KASR 261855Z 14009KT 22/05 A3018 RMK A01 T02190046  RH  033%=      5-min Rain = 0
KASR 261900Z 14010G15KT 22/05 A3018 RMK A01 T02220045  RH  032%=      5-min Rain = 0
KASR 261905Z 11010G15KT 22/04 A3018 RMK A01 T02210038  RH  031%=      5-min Rain = 0
KASR 261910Z 11008G13KT 22/05 A3018 RMK A01 T02230046  RH  032%=      5-min Rain = 0
KASR 261915Z 13010KT 22/04 A3018 RMK A01 T02240039  RH  030%=      5-min Rain = 0
KASR 261920Z 14010KT 22/04 A3017 RMK A01 T02230036  RH  030%=      5-min Rain = 0
KASR 261925Z 13009G14KT 22/05 A3017 RMK A01 T02240045  RH  031%=      5-min Rain = 0
KASR 261930Z 12007KT 23/05 A3017 RMK A01 T02260048  RH  032%=      5-min Rain = 0
KASR 261935Z 13007G12KT 23/06 A3016 RMK A01 T02280058  RH  034%=      5-min Rain = 0
KASR 261940Z 13010G17KT 23/05 A3016 RMK A01 T02290054  RH  033%=      5-min Rain = 0
KASR 261945Z 14008G13KT 23/05 A3016 RMK A01 T02260050  RH  032%=      5-min Rain = 0
KASR 261950Z 13009KT 23/05 A3015 RMK A01 T02290054  RH  033%=      5-min Rain = 0
KASR 261955Z 14009G16KT 23/06 A3015 RMK A01 T02290060  RH  034%=      5-min Rain = 0
KASR 262000Z 14009G14KT 23/06 A3015 RMK A01 T02290057  RH  033%=      5-min Rain = 0
KASR 262005Z 14007KT 23/07 A3014 RMK A01 T02320065  RH  034%=      5-min Rain = 0
KASR 262010Z 14009G14KT 23/06 A3014 RMK A01 T02320063  RH  034%=      5-min Rain = 0
KASR 262015Z 13008G13KT 23/07 A3014 RMK A01 T02320068  RH  035%=      5-min Rain = 0
KASR 262020Z 14009KT 23/07 A3013 RMK A01 T02330070  RH  035%=      5-min Rain = 0
KASR 262025Z 15008KT 23/06 A3013 RMK A01 T02330064  RH  034%=      5-min Rain = 0
KASR 262030Z 14009G14KT 23/06 A3013 RMK A01 T02340062  RH  033%=      5-min Rain = 0
KASR 262035Z 12008KT 23/05 A3012 RMK A01 T02330054  RH  032%=      5-min Rain = 0
KASR 262040Z 13007KT 24/06 A3012 RMK A01 T02350063  RH  033%=      5-min Rain = 0
KASR 262045Z 15009G14KT 23/06 A3012 RMK A01 T02330060  RH  033%=      5-min Rain = 0
KASR 262050Z 14007G12KT 23/07 A3011 RMK A01 T02340065  RH  034%=      5-min Rain = 0
KASR 262055Z 12010G15KT 24/05 A3011 RMK A01 T02350051  RH  031%=      5-min Rain = 0
KASR 262100Z 13006KT 24/06 A3011 RMK A01 T02370064  RH  033%=      5-min Rain = 0
KASR 262105Z 16008G13KT 23/07 A301 RMK A01 T02320074  RH  037%=      5-min Rain = 0
KASR 262110Z 16007KT 23/07 A301 RMK A01 T02310074  RH  037%=      5-min Rain = 0
KASR 262115Z 14009KT 24/07 A301 RMK A01 T02380071  RH  035%=      5-min Rain = 0
KASR 262120Z 13009G15KT 24/07 A3009 RMK A01 T02380072  RH  035%=      5-min Rain = 0
KASR 262125Z 14010G15KT 24/07 A3009 RMK A01 T02390068  RH  034%=      5-min Rain = 0
KASR 262130Z 16010G15KT 24/07 A3008 RMK A01 T02380068  RH  034%=      5-min Rain = 0
KASR 262135Z 15008G13KT 24/07 A3008 RMK A01 T02390073  RH  035%=      5-min Rain = 0
KASR 262140Z 16008KT 24/08 A3008 RMK A01 T02390076  RH  036%=      5-min Rain = 0
KASR 262145Z 13009KT 24/07 A3007 RMK A01 T02400073  RH  035%=      5-min Rain = 0
KASR 262150Z 15008KT 24/07 A3007 RMK A01 T02390070  RH  034%=      5-min Rain = 0
KASR 262155Z 14009KT 24/07 A3006 RMK A01 T02410072  RH  034%=      5-min Rain = 0
KASR 262200Z 13009G14KT 24/07 A3006 RMK A01 T02400069  RH  034%=      5-min Rain = 0
KASR 262205Z 16009G15KT 24/08 A3006 RMK A01 T02410077  RH  036%=      5-min Rain = 0
KASR 262210Z 16011KT 24/07 A3006 RMK A01 T02410071  RH  034%=      5-min Rain = 0
KASR 262215Z 14011KT 24/06 A3005 RMK A01 T02400062  RH  032%=      5-min Rain = 0
KASR 262220Z 14008KT 24/07 A3005 RMK A01 T02410070  RH  034%=      5-min Rain = 0
KASR 262225Z 14009KT 24/08 A3005 RMK A01 T02430080  RH  036%=      5-min Rain = 0
KASR 262230Z 14008KT 24/08 A3005 RMK A01 T02410076  RH  035%=      5-min Rain = 0
KASR 262235Z 16010G15KT 24/08 A3005 RMK A01 T02410077  RH  036%=      5-min Rain = 0
KASR 262240Z 16010KT 24/07 A3004 RMK A01 T02390074  RH  035%=      5-min Rain = 0
KASR 262245Z 15009KT 24/08 A3004 RMK A01 T02410081  RH  037%=      5-min Rain = 0
KASR 262250Z 15009G15KT 24/08 A3003 RMK A01 T02420081  RH  036%=      5-min Rain = 0
KASR 262255Z 15010G16KT 24/07 A3003 RMK A01 T02410071  RH  034%=      5-min Rain = 0
KASR 262300Z 15010KT 24/07 A3003 RMK A01 T02390068  RH  034%=      5-min Rain = 0
KASR 262305Z 15009G15KT 24/07 A3003 RMK A01 T02400072  RH  035%=      5-min Rain = 0
KASR 262310Z 15010G16KT 24/07 A3002 RMK A01 T02390068  RH  034%=      5-min Rain = 0
KASR 262315Z 15011G16KT 24/06 A3002 RMK A01 T02370063  RH  033%=      5-min Rain = 0
KASR 262320Z 15011G16KT 24/06 A3002 RMK A01 T02370063  RH  033%=      5-min Rain = 0
KASR 262325Z 15011KT 24/07 A3001 RMK A01 T02370067  RH  034%=      5-min Rain = 0
KASR 262330Z 15012G17KT 24/07 A3001 RMK A01 T02370071  RH  035%=      5-min Rain = 0
KASR 262335Z 15009KT 24/08 A3001 RMK A01 T02370076  RH  036%=      5-min Rain = 0
KASR 262340Z 15010G16KT 24/08 A3001 RMK A01 T02370075  RH  036%=      5-min Rain = 0
KASR 262345Z 15009KT 24/09 A30 RMK A01 T02360085  RH  039%=      5-min Rain = 0
KASR 262350Z 15010G15KT 24/08 A30 RMK A01 T02360084  RH  038%=      5-min Rain = 0
KASR 262355Z 15009G14KT 24/09 A30 RMK A01 T02350089  RH  040%=      5-min Rain = 0
KASR 270000Z 16010G17KT 23/09 A30 RMK A01 T02340093  RH  041%=      5-min Rain = 0
KASR 270005Z 16011G16KT 23/09 A30 RMK A01 T02320092  RH  042%=      5-min Rain = 0
KASR 270010Z 15011KT 23/09 A30 RMK A01 T02310089  RH  041%=      5-min Rain = 0
KASR 270015Z 15010KT 23/09 A2999 RMK A01 T02300089  RH  041%=      5-min Rain = 0
KASR 270020Z 15010G16KT 23/09 A2999 RMK A01 T02290086  RH  041%=      5-min Rain = 0
KASR 270025Z 15010G16KT 23/09 A2999 RMK A01 T02270085  RH  041%=      5-min Rain = 0
KASR 270030Z 14010G16KT 23/08 A2999 RMK A01 T02270081  RH  040%=      5-min Rain = 0
KASR 270035Z 15009KT 23/08 A2999 RMK A01 T02250084  RH  041%=      5-min Rain = 0
KASR 270040Z 14008KT 22/09 A2998 RMK A01 T02220088  RH  043%=      5-min Rain = 0
KASR 270045Z 15007KT 22/09 A2998 RMK A01 T02190090  RH  044%=      5-min Rain = 0
KASR 270050Z 14008KT 22/09 A2998 RMK A01 T02170089  RH  045%=      5-min Rain = 0
KASR 270055Z 15008KT 22/09 A2998 RMK A01 T02150089  RH  045%=      5-min Rain = 0
KASR 270100Z 15007KT 21/09 A2997 RMK A01 T02120093  RH  047%=      5-min Rain = 0
KASR 270105Z 15006KT 21/09 A2997 RMK A01 T02080094  RH  049%=      5-min Rain = 0
KASR 270110Z 15006KT 20/10 A2997 RMK A01 T02030096  RH  051%=      5-min Rain = 0
KASR 270115Z 14005KT 20/10 A2998 RMK A01 T01990097  RH  053%=      5-min Rain = 0
KASR 270120Z 15006KT 20/10 A2998 RMK A01 T01950098  RH  054%=      5-min Rain = 0
KASR 270125Z 15006KT 19/10 A2998 RMK A01 T01930099  RH  055%=      5-min Rain = 0
KASR 270130Z 15006KT 19/10 A2998 RMK A01 T01900098  RH  056%=      5-min Rain = 0
KASR 270135Z 15006KT 19/10 A2998 RMK A01 T01880097  RH  056%=      5-min Rain = 0
KASR 270140Z 14005KT 19/10 A2998 RMK A01 T01860096  RH  057%=      5-min Rain = 0
KASR 270145Z 14005KT 18/10 A2998 RMK A01 T01840097  RH  058%=      5-min Rain = 0
KASR 270150Z 13005KT 18/10 A2998 RMK A01 T01810096  RH  059%=      5-min Rain = 0
KASR 270155Z 13005KT 18/10 A2998 RMK A01 T01790097  RH  060%=      5-min Rain = 0
KASR 270200Z 14006KT 18/10 A2998 RMK A01 T01760096  RH  060%=      5-min Rain = 0
KASR 270205Z 14006KT 18/10 A2998 RMK A01 T01750096  RH  061%=      5-min Rain = 0
KASR 270210Z 14006KT 18/10 A2998 RMK A01 T01750096  RH  061%=      5-min Rain = 0
KASR 270215Z 14006KT 17/10 A2998 RMK A01 T01740096  RH  061%=      5-min Rain = 0
KASR 270220Z 15006KT 18/10 A2998 RMK A01 T01750095  RH  060%=      5-min Rain = 0
KASR 270225Z 15006KT 18/09 A2998 RMK A01 T01750094  RH  060%=      5-min Rain = 0
KASR 270230Z 15005KT 18/09 A2998 RMK A01 T01750094  RH  060%=      5-min Rain = 0
KASR 270235Z 14005KT 17/09 A2998 RMK A01 T01740093  RH  060%=      5-min Rain = 0
KASR 270240Z 14005KT 17/09 A2998 RMK A01 T01740093  RH  060%=      5-min Rain = 0
KASR 270245Z 15005KT 17/09 A2998 RMK A01 T01730094  RH  061%=      5-min Rain = 0
KASR 270250Z 16006KT 17/10 A2998 RMK A01 T01710095  RH  062%=      5-min Rain = 0
KASR 270255Z 16007KT 17/10 A2998 RMK A01 T01700095  RH  062%=      5-min Rain = 0
KASR 270300Z 16007KT 17/10 A2999 RMK A01 T01700095  RH  062%=      5-min Rain = 0
KASR 270305Z 16007KT 17/10 A2998 RMK A01 T01690096  RH  063%=      5-min Rain = 0
KASR 270310Z 15007KT 17/10 A2998 RMK A01 T01680096  RH  064%=      5-min Rain = 0
KASR 270315Z 15007KT 17/10 A2998 RMK A01 T01680097  RH  064%=      5-min Rain = 0
KASR 270320Z 15007KT 17/10 A2998 RMK A01 T01670097  RH  065%=      5-min Rain = 0
KASR 270325Z 15007KT 17/10 A2998 RMK A01 T01660098  RH  065%=      5-min Rain = 0
KASR 270330Z 15006KT 17/10 A2998 RMK A01 T01650098  RH  065%=      5-min Rain = 0
KASR 270335Z 15006KT 16/10 A2998 RMK A01 T01640098  RH  066%=      5-min Rain = 0
KASR 270340Z 15006KT 16/10 A2998 RMK A01 T01630099  RH  067%=      5-min Rain = 0
KASR 270345Z 15006KT 16/10 A2998 RMK A01 T01620099  RH  067%=      5-min Rain = 0
KASR 270350Z 15005KT 16/10 A2998 RMK A01 T01610099  RH  067%=      5-min Rain = 0
KASR 270355Z 15004KT 16/10 A2998 RMK A01 T01610098  RH  067%=      5-min Rain = 0
KASR 270400Z 14004KT 16/10 A2998 RMK A01 T01610098  RH  067%=      5-min Rain = 0
KASR 270405Z 15004KT 16/10 A2998 RMK A01 T01590099  RH  068%=      5-min Rain = 0
KASR 270410Z 15005KT 16/10 A2998 RMK A01 T01580098  RH  069%=      5-min Rain = 0
KASR 270415Z 14005KT 16/10 A2997 RMK A01 T01580098  RH  069%=      5-min Rain = 0
KASR 270420Z 14005KT 16/10 A2997 RMK A01 T01580098  RH  069%=      5-min Rain = 0
KASR 270425Z 14005KT 16/10 A2997 RMK A01 T01570099  RH  069%=      5-min Rain = 0
KASR 270430Z 14004KT 16/10 A2997 RMK A01 T01570099  RH  069%=      5-min Rain = 0
KASR 270435Z 14005KT 16/10 A2997 RMK A01 T01560098  RH  070%=      5-min Rain = 0
KASR 270440Z 15005KT 16/10 A2997 RMK A01 T01570098  RH  069%=      5-min Rain = 0
KASR 270445Z 15005KT 16/10 A2997 RMK A01 T01570099  RH  069%=      5-min Rain = 0
KASR 270450Z 14005KT 16/10 A2996 RMK A01 T01570099  RH  069%=      5-min Rain = 0
KASR 270455Z 15006KT 16/10 A2996 RMK A01 T01560098  RH  069%=      5-min Rain = 0

Page generated in 0.0131 seconds.